Time;durP1;ratioP1;P1;durP2;ratioP2;P2;SDS_P1;SDS_P2;PMS_P1;PMS_P2;Temp;Humidity;BMP_temperature;BMP_pressure;BME280_temperature;BME280_humidity;BME280_pressure;Samples;Min_cycle;Max_cycle;Signal;HPM_P1;HPM_P2
2023/04/14 04:06:14;;;;;;;2.75;2.35;;;4.20;99.90;;;;;;5023437;23;20683;-65
2023/04/14 04:08:41;;;;;;;3.95;2.22;;;4.10;99.90;;;;;;4978139;28;20310;-66
2023/04/14 04:11:07;;;;;;;2.35;2.15;;;4.10;99.90;;;;;;4995487;28;20207;-65
2023/04/14 04:13:35;;;;;;;4.88;1.85;;;4.00;99.90;;;;;;4995433;28;20168;-65
2023/04/14 04:16:01;;;;;;;2.40;2.13;;;4.00;99.90;;;;;;4995407;28;20282;-65
2023/04/14 04:18:30;;;;;;;1.83;1.73;;;3.90;99.90;;;;;;4985956;28;20164;-66
2023/04/14 04:20:57;;;;;;;2.72;2.42;;;4.00;99.90;;;;;;4975740;28;20187;-66
2023/04/14 04:23:24;;;;;;;1.27;1.23;;;4.00;99.90;;;;;;4975487;28;20222;-65
2023/04/14 04:25:52;;;;;;;3.38;2.65;;;3.90;99.90;;;;;;4975801;28;20208;-64
2023/04/14 04:28:17;;;;;;;2.45;2.35;;;3.90;99.90;;;;;;4975204;28;20255;-65
2023/04/14 04:30:45;;;;;;;4.40;3.20;;;3.80;99.90;;;;;;4975782;28;20231;-65
2023/04/14 04:33:12;;;;;;;1.75;1.65;;;3.80;99.90;;;;;;4966780;28;20168;-66
2023/04/14 04:35:39;;;;;;;2.80;2.55;;;3.80;99.90;;;;;;4976574;28;20196;-65
2023/04/14 04:38:05;;;;;;;1.65;1.60;;;3.70;99.90;;;;;;4995065;28;20525;-65
2023/04/14 04:40:36;;;;;;;1.70;1.60;;;3.70;99.90;;;;;;4995100;28;20174;-65
2023/04/14 04:43:02;;;;;;;1.25;1.20;;;3.70;99.90;;;;;;4994714;28;20167;-64
2023/04/14 04:45:44;;;;;;;1.47;1.33;;;3.70;99.90;;;;;;4994771;28;20278;-65
2023/04/14 04:48:09;;;;;;;2.67;2.20;;;3.70;99.90;;;;;;4983253;28;20175;-66
2023/04/14 04:50:35;;;;;;;2.00;1.87;;;3.70;99.90;;;;;;4975436;28;20211;-65
2023/04/14 04:53:01;;;;;;;2.90;2.20;;;3.70;99.90;;;;;;4974956;28;20411;-66
2023/04/14 04:55:26;;;;;;;2.13;2.03;;;3.70;99.90;;;;;;4975120;28;20659;-65
2023/04/14 04:57:52;;;;;;;2.00;1.90;;;3.70;99.90;;;;;;4975502;28;20176;-65
2023/04/14 05:00:18;;;;;;;4.03;2.57;;;3.70;99.90;;;;;;4975423;28;20176;-64
2023/04/14 05:02:43;;;;;;;2.05;1.63;;;3.70;99.90;;;;;;4976108;28;20178;-65
2023/04/14 05:05:10;;;;;;;2.43;2.23;;;3.70;99.90;;;;;;4974444;28;20585;-65
2023/04/14 05:07:35;;;;;;;4.15;3.80;;;3.70;99.90;;;;;;4975176;28;20174;-64
2023/04/14 05:10:01;;;;;;;2.40;2.30;;;3.80;99.90;;;;;;4975093;28;20254;-65
2023/04/14 05:12:26;;;;;;;2.83;2.70;;;3.80;99.90;;;;;;4957747;28;20180;-65
2023/04/14 05:14:52;;;;;;;2.83;2.47;;;3.80;99.90;;;;;;4974460;28;20211;-65
2023/04/14 05:17:18;;;;;;;4.13;2.23;;;3.80;99.90;;;;;;4974703;28;20527;-65
2023/04/14 05:19:44;;;;;;;1.97;1.83;;;3.80;99.90;;;;;;4975182;28;20187;-65
2023/04/14 05:22:11;;;;;;;2.85;2.65;;;3.90;99.90;;;;;;4974912;28;20164;-65
2023/04/14 05:24:38;;;;;;;3.40;2.67;;;4.00;99.90;;;;;;4974709;28;20211;-64
2023/04/14 05:27:03;;;;;;;3.55;3.15;;;4.10;99.90;;;;;;4974942;28;20705;-65
2023/04/14 05:29:29;;;;;;;3.70;3.30;;;4.20;99.90;;;;;;4974771;28;20284;-65
2023/04/14 05:31:54;;;;;;;2.60;2.17;;;4.40;99.90;;;;;;4974492;28;20657;-64
2023/04/14 05:34:20;;;;;;;3.07;2.77;;;4.60;99.90;;;;;;4974482;28;20216;-64
2023/04/14 05:36:46;;;;;;;3.73;3.43;;;5.00;99.90;;;;;;4974717;28;20174;-66
2023/04/14 05:39:12;;;;;;;3.60;3.30;;;5.40;99.90;;;;;;4974130;28;20181;-65
2023/04/14 05:41:37;;;;;;;4.07;3.78;;;5.90;99.90;;;;;;4974422;28;20761;-66
2023/04/14 05:44:03;;;;;;;4.97;4.47;;;6.10;99.90;;;;;;4974103;28;20219;-66
2023/04/14 05:46:29;;;;;;;1.67;1.57;;;6.30;99.90;;;;;;4974144;28;20265;-65
2023/04/14 05:48:55;;;;;;;2.20;2.00;;;6.30;99.90;;;;;;4974275;28;20190;-65
2023/04/14 05:51:21;;;;;;;2.67;2.50;;;6.40;99.90;;;;;;4974491;28;20255;-65
2023/04/14 05:53:47;;;;;;;3.93;3.60;;;6.60;99.90;;;;;;4973990;28;20635;-66
2023/04/14 05:56:12;;;;;;;2.30;2.20;;;6.70;99.90;;;;;;4975300;28;20188;-66
2023/04/14 05:58:38;;;;;;;2.37;2.27;;;7.10;99.90;;;;;;4974497;28;20172;-65
2023/04/14 06:01:05;;;;;;;5.27;2.90;;;7.40;99.90;;;;;;4974444;28;20172;-66
2023/04/14 06:03:30;;;;;;;3.65;2.75;;;7.60;99.90;;;;;;4985653;28;20179;-65
2023/04/14 06:05:56;;;;;;;1.60;1.50;;;7.80;99.90;;;;;;4993628;28;20694;-66
2023/04/14 06:08:21;;;;;;;2.47;2.23;;;7.90;99.90;;;;;;4993820;28;20172;-65
2023/04/14 06:10:47;;;;;;;1.87;1.60;;;8.00;99.90;;;;;;4993757;28;20203;-64
2023/04/14 06:13:13;;;;;;;2.73;2.57;;;8.20;99.90;;;;;;4993281;28;20175;-64
2023/04/14 06:15:39;;;;;;;2.50;2.00;;;8.40;99.90;;;;;;4993521;28;20180;-66
2023/04/14 06:18:05;;;;;;;2.53;2.33;;;8.70;99.90;;;;;;4982787;28;20223;-66
2023/04/14 06:20:30;;;;;;;3.30;2.20;;;8.90;99.90;;;;;;4974190;28;20175;-66
2023/04/14 06:22:56;;;;;;;3.40;2.70;;;9.20;99.90;;;;;;4974253;28;20523;-65
2023/04/14 06:25:21;;;;;;;1.80;1.70;;;9.40;99.90;;;;;;4973654;28;20194;-65
2023/04/14 06:27:47;;;;;;;2.37;2.03;;;9.50;99.90;;;;;;4974238;28;20297;-65
2023/04/14 06:30:15;;;;;;;2.47;2.17;;;9.70;99.90;;;;;;4974057;28;20208;-65
2023/04/14 06:32:41;;;;;;;2.40;2.30;;;9.90;99.90;;;;;;4983141;28;20171;-65
2023/04/14 06:35:07;;;;;;;2.37;2.20;;;10.10;99.90;;;;;;4993188;28;20489;-67
2023/04/14 06:37:33;;;;;;;2.83;1.70;;;10.30;99.90;;;;;;4993437;28;20173;-72
2023/04/14 06:39:58;;;;;;;1.97;1.87;;;10.70;99.90;;;;;;4974328;28;20440;-66
2023/04/14 06:42:24;;;;;;;1.77;1.70;;;11.00;99.90;;;;;;4974316;28;20179;-66
2023/04/14 06:44:50;;;;;;;2.10;2.00;;;11.30;99.90;;;;;;4973607;28;20201;-65
2023/04/14 06:47:20;;;;;;;1.87;1.73;;;11.40;99.90;;;;;;4973850;28;20417;-66
2023/04/14 06:49:45;;;;;;;2.67;2.37;;;11.40;99.90;;;;;;4974082;28;20192;-66
2023/04/14 06:52:11;;;;;;;1.50;1.40;;;11.30;99.90;;;;;;4983698;28;20432;-66
2023/04/14 06:54:36;;;;;;;2.23;2.03;;;11.30;99.90;;;;;;5004340;28;20249;-66
2023/04/14 06:57:02;;;;;;;1.87;1.77;;;11.60;99.90;;;;;;5003799;28;20202;-65
2023/04/14 06:59:28;;;;;;;2.10;1.67;;;11.80;99.90;;;;;;5002634;28;20167;-66
2023/04/14 07:01:54;;;;;;;1.30;1.30;;;12.00;99.90;;;;;;5000432;28;20175;-66
2023/04/14 07:04:21;;;;;;;2.73;2.07;;;12.00;99.90;;;;;;4985967;28;20439;-66
2023/04/14 07:06:46;;;;;;;7.60;2.50;;;11.80;99.90;;;;;;4987807;28;20398;-67
2023/04/14 07:09:12;;;;;;;1.67;1.57;;;11.90;99.90;;;;;;4986411;28;20451;-67
2023/04/14 07:11:39;;;;;;;2.00;1.80;;;12.10;99.90;;;;;;4983948;28;20201;-67
2023/04/14 07:14:05;;;;;;;2.03;1.93;;;12.30;99.90;;;;;;4977140;28;20456;-66
2023/04/14 07:16:30;;;;;;;3.60;1.60;;;12.40;99.90;;;;;;4979452;28;20979;-67
2023/04/14 07:18:56;;;;;;;1.30;1.20;;;12.40;99.90;;;;;;4996576;28;20170;-66
2023/04/14 07:21:21;;;;;;;2.80;2.60;;;12.50;99.90;;;;;;4996541;28;20172;-67
2023/04/14 07:23:47;;;;;;;6.33;2.90;;;13.20;99.90;;;;;;4996291;28;20183;-66
2023/04/14 07:26:13;;;;;;;1.93;1.80;;;13.60;99.90;;;;;;4996386;28;20171;-67
2023/04/14 07:28:38;;;;;;;1.73;1.63;;;13.90;99.90;;;;;;4996581;28;20710;-66
2023/04/14 07:31:08;;;;;;;1.80;1.70;;;14.20;99.90;;;;;;4995607;28;20287;-66
2023/04/14 07:33:34;;;;;;;2.03;1.10;;;14.50;99.60;;;;;;4976344;28;20227;-66
2023/04/14 07:36:06;;;;;;;1.93;1.83;;;14.60;99.60;;;;;;4976809;28;20882;-65
2023/04/14 07:38:31;;;;;;;3.83;1.73;;;15.00;99.00;;;;;;4974035;28;20430;-65
2023/04/14 07:40:57;;;;;;;2.00;1.17;;;15.20;97.20;;;;;;4996306;28;20897;-65
2023/04/14 07:43:23;;;;;;;1.40;1.30;;;15.10;97.50;;;;;;4995689;28;20187;-66
2023/04/14 07:45:50;;;;;;;1.13;1.13;;;15.20;97.30;;;;;;4995952;28;20212;-66
2023/04/14 07:48:18;;;;;;;1.90;1.80;;;15.60;98.00;;;;;;4996075;28;20378;-67
2023/04/14 07:50:45;;;;;;;1.13;1.07;;;16.10;95.70;;;;;;4995840;28;20769;-67
2023/04/14 07:53:11;;;;;;;0.80;0.80;;;16.50;94.30;;;;;;4977518;28;20430;-66
2023/04/14 07:55:36;;;;;;;1.30;0.90;;;16.80;93.30;;;;;;4976376;28;20774;-66
2023/04/14 07:58:02;;;;;;;1.20;1.10;;;17.30;92.90;;;;;;4987059;28;20192;-66
2023/04/14 08:00:28;;;;;;;1.13;1.13;;;18.20;91.80;;;;;;4995830;28;20641;-66
2023/04/14 08:02:53;;;;;;;1.37;0.83;;;18.40;90.20;;;;;;4977375;28;20272;-66
2023/04/14 08:05:19;;;;;;;0.80;0.80;;;18.50;89.10;;;;;;4994943;28;20210;-66
2023/04/14 08:07:45;;;;;;;1.23;1.13;;;18.90;89.40;;;;;;4977862;28;20175;-65
2023/04/14 08:10:10;;;;;;;1.50;1.20;;;19.50;90.00;;;;;;4995470;28;20553;-66
2023/04/14 08:12:36;;;;;;;2.00;1.40;;;20.00;88.80;;;;;;4985896;28;20212;-67
2023/04/14 08:15:02;;;;;;;4.07;1.40;;;20.70;87.10;;;;;;4975829;28;20199;-66
2023/04/14 08:17:29;;;;;;;1.13;0.93;;;21.00;82.60;;;;;;4976088;28;20172;-67
2023/04/14 08:19:54;;;;;;;1.60;1.00;;;20.90;81.60;;;;;;4976193;28;20778;-67
2023/04/14 08:22:20;;;;;;;1.43;1.10;;;21.40;85.30;;;;;;4975472;28;20398;-67
2023/04/14 08:24:47;;;;;;;1.00;0.80;;;21.60;81.30;;;;;;4975237;28;20674;-67
2023/04/14 08:27:12;;;;;;;2.47;0.90;;;21.80;78.30;;;;;;4975927;28;20507;-68
2023/04/14 08:29:38;;;;;;;1.80;0.80;;;21.40;78.40;;;;;;4975656;28;20462;-67
2023/04/14 08:32:04;;;;;;;1.07;0.97;;;21.40;76.90;;;;;;4975823;28;20184;-67
2023/04/14 08:34:30;;;;;;;2.03;0.60;;;21.80;79.50;;;;;;4975370;28;20665;-66
2023/04/14 08:36:55;;;;;;;1.87;0.93;;;22.40;78.30;;;;;;4975128;28;20482;-67
2023/04/14 08:39:21;;;;;;;0.80;0.80;;;22.90;78.80;;;;;;4975418;28;20219;-67
2023/04/14 08:41:49;;;;;;;0.83;0.83;;;23.60;78.00;;;;;;4975670;28;20168;-67
2023/04/14 08:44:14;;;;;;;4.07;1.00;;;23.60;71.90;;;;;;4957543;28;20730;-67
2023/04/14 08:46:41;;;;;;;1.70;1.50;;;23.80;73.80;;;;;;4975524;28;20458;-67
2023/04/14 08:49:11;;;;;;;0.67;0.67;;;23.70;72.30;;;;;;4975374;28;20168;-67
2023/04/14 08:51:42;;;;;;;0.80;0.80;;;23.50;70.60;;;;;;4980815;28;20425;-67
2023/04/14 08:54:09;;;;;;;0.80;0.60;;;23.30;71.40;;;;;;4994450;28;20430;-67
2023/04/14 08:56:38;;;;;;;1.70;0.90;;;23.60;74.40;;;;;;4994826;28;20434;-67
2023/04/14 08:59:05;;;;;;;2.27;1.23;;;24.30;73.30;;;;;;4994443;28;20373;-66
2023/04/14 09:01:33;;;;;;;0.80;0.80;;;24.70;71.10;;;;;;4994484;28;20403;-67
2023/04/14 09:03:59;;;;;;;1.63;0.90;;;24.90;69.50;;;;;;4994066;28;20390;-68
2023/04/14 09:06:26;;;;;;;1.10;1.03;;;24.60;65.80;;;;;;4984316;28;20442;-68
2023/04/14 09:08:53;;;;;;;1.03;0.83;;;24.20;69.90;;;;;;4975038;28;20459;-68
2023/04/14 09:11:18;;;;;;;0.87;0.87;;;24.60;71.60;;;;;;4974938;28;20478;-66
2023/04/14 09:13:45;;;;;;;0.90;0.90;;;24.60;66.80;;;;;;4956931;28;20416;-67
2023/04/14 09:16:12;;;;;;;0.93;0.90;;;24.90;69.90;;;;;;4974948;28;20160;-67
2023/04/14 09:18:38;;;;;;;0.90;0.90;;;25.50;67.80;;;;;;4974899;28;20408;-66
2023/04/14 09:21:04;;;;;;;1.53;0.70;;;25.70;66.00;;;;;;4974368;28;20427;-66
2023/04/14 09:23:30;;;;;;;1.10;0.90;;;26.00;65.70;;;;;;4956798;28;20423;-65
2023/04/14 09:25:57;;;;;;;1.47;1.37;;;26.50;67.20;;;;;;4974555;28;20279;-67
2023/04/14 09:28:23;;;;;;;0.90;0.83;;;26.80;62.70;;;;;;4974697;28;20467;-66
2023/04/14 09:30:48;;;;;;;1.13;1.00;;;26.50;61.90;;;;;;4977993;28;20465;-66
2023/04/14 09:33:21;;;;;;;0.80;0.80;;;26.30;62.70;;;;;;4993708;28;20175;-66
2023/04/14 09:35:49;;;;;;;1.17;1.07;;;26.10;62.30;;;;;;4994237;28;20258;-68
2023/04/14 09:38:33;;;;;;;1.13;1.07;;;25.40;65.80;;;;;;4993834;28;20395;-67
2023/04/14 09:41:00;;;;;;;1.30;1.13;;;25.00;64.20;;;;;;4994033;28;20407;-66
2023/04/14 09:43:26;;;;;;;1.13;1.03;;;24.90;66.30;;;;;;4993576;28;20437;-67
2023/04/14 09:45:53;;;;;;;1.83;1.00;;;24.50;64.60;;;;;;4987601;28;20440;-67
2023/04/14 09:48:19;;;;;;;0.80;0.80;;;24.80;68.20;;;;;;4974739;28;20410;-67
2023/04/14 09:50:59;;;;;;;1.07;0.80;;;25.40;67.40;;;;;;4974457;28;20802;-67
2023/04/14 09:53:30;;;;;;;0.90;0.70;;;25.90;63.80;;;;;;4956938;28;20405;-68
2023/04/14 09:55:58;;;;;;;0.80;0.80;;;25.50;60.00;;;;;;4974502;28;20429;-69
2023/04/14 09:58:35;;;;;;;2.23;1.10;;;25.10;63.20;;;;;;4974237;28;20374;-68
2023/04/14 10:01:09;;;;;;;2.00;1.23;;;25.20;62.80;;;;;;4974198;28;20438;-67
2023/04/14 10:03:40;;;;;;;1.03;0.90;;;25.70;64.00;;;;;;4974032;28;20457;-67
2023/04/14 10:06:17;;;;;;;1.10;1.00;;;25.70;61.00;;;;;;4956414;28;20800;-67
2023/04/14 10:08:51;;;;;;;1.33;1.23;;;25.10;61.70;;;;;;4974071;28;20507;-67
2023/04/14 10:11:24;;;;;;;1.10;1.00;;;24.70;61.20;;;;;;4956701;28;20798;-66
2023/04/14 10:13:53;;;;;;;1.73;1.50;;;24.50;64.40;;;;;;4973791;28;20486;-67
2023/04/14 10:16:19;;;;;;;0.90;0.90;;;25.10;65.50;;;;;;4992818;28;20426;-66
2023/04/14 10:18:45;;;;;;;2.03;1.30;;;25.60;60.20;;;;;;4993523;28;20407;-67
2023/04/14 10:21:13;;;;;;;1.50;1.13;;;25.90;59.50;;;;;;4993642;28;20781;-67
2023/04/14 10:23:42;;;;;;;1.20;0.80;;;25.50;58.90;;;;;;4980022;28;20172;-67
2023/04/14 10:26:10;;;;;;;1.13;0.90;;;24.90;63.00;;;;;;4975387;28;20448;-67
2023/04/14 10:28:39;;;;;;;0.83;0.83;;;24.90;61.70;;;;;;4978076;28;20400;-67
2023/04/14 10:31:10;;;;;;;1.03;0.90;;;24.80;62.20;;;;;;4984360;28;20453;-68
2023/04/14 10:33:41;;;;;;;2.50;1.00;;;23.80;61.50;;;;;;4997284;28;20403;-65
2023/04/14 10:36:07;;;;;;;0.90;0.90;;;23.10;62.50;;;;;;4998224;28;20406;-67
2023/04/14 10:38:45;;;;;;;3.70;1.50;;;22.80;66.00;;;;;;4990160;28;20390;-67
2023/04/14 10:41:11;;;;;;;0.80;0.73;;;23.20;65.00;;;;;;4978189;28;20452;-67
2023/04/14 10:43:38;;;;;;;1.70;1.17;;;22.30;61.00;;;;;;4977938;28;20386;-67
2023/04/14 10:46:06;;;;;;;1.53;0.83;;;21.80;63.50;;;;;;4978250;28;20405;-67
2023/04/14 10:48:35;;;;;;;1.67;0.90;;;21.50;62.10;;;;;;4978930;28;20404;-67
2023/04/14 10:51:03;;;;;;;1.53;1.10;;;21.10;63.30;;;;;;4978514;28;20425;-67
2023/04/14 10:53:46;;;;;;;1.90;0.80;;;21.20;66.60;;;;;;4986523;28;20429;-65
2023/04/14 10:56:12;;;;;;;1.70;1.00;;;21.50;64.80;;;;;;4997475;28;20883;-67
2023/04/14 10:58:38;;;;;;;1.60;0.80;;;21.70;63.80;;;;;;4979456;28;20805;-67
2023/04/14 11:01:30;;;;;;;1.60;1.23;;;21.60;64.00;;;;;;4996862;28;20422;-68
2023/04/14 11:04:09;;;;;;;2.40;0.90;;;21.70;65.10;;;;;;4996590;28;20377;-66
2023/04/14 11:06:49;;;;;;;1.70;0.63;;;22.00;63.30;;;;;;4996929;28;20430;-68
2023/04/14 11:09:30;;;;;;;1.53;1.07;;;21.40;60.00;;;;;;4992371;28;20423;-66
2023/04/14 11:12:22;;;;;;;1.07;1.00;;;20.40;62.40;;;;;;4976960;28;20444;-67
2023/04/14 11:14:48;;;;;;;1.73;1.27;;;19.40;66.60;;;;;;4976566;28;20461;-65
2023/04/14 11:17:20;;;;;;;1.00;0.90;;;18.80;70.20;;;;;;4976893;28;20814;-66
2023/04/14 11:19:46;;;;;;;0.70;0.70;;;18.50;70.10;;;;;;4976738;28;20523;-66
2023/04/14 11:22:12;;;;;;;2.50;1.00;;;18.20;70.10;;;;;;4959472;28;20424;-66
2023/04/14 11:24:38;;;;;;;0.67;0.67;;;17.90;69.60;;;;;;4976256;28;20497;-66
2023/04/14 11:27:04;;;;;;;1.33;0.80;;;17.60;72.90;;;;;;4975697;28;20180;-69
2023/04/14 11:29:30;;;;;;;1.30;1.07;;;17.40;72.70;;;;;;4975612;28;20972;-67
2023/04/14 11:32:05;;;;;;;0.70;0.70;;;17.20;73.50;;;;;;4976972;28;20171;-66
2023/04/14 11:34:32;;;;;;;0.67;0.67;;;17.00;69.30;;;;;;4976240;28;20482;-65
2023/04/14 11:37:00;;;;;;;2.10;1.13;;;16.80;72.10;;;;;;4976672;28;20424;-67
2023/04/14 11:39:27;;;;;;;1.10;1.00;;;16.50;72.00;;;;;;4986307;28;20423;-65
2023/04/14 11:41:54;;;;;;;0.70;0.70;;;16.20;72.70;;;;;;4978956;28;20433;-68
2023/04/14 11:44:20;;;;;;;1.00;1.00;;;16.00;73.20;;;;;;4978304;28;20409;-70
2023/04/14 11:46:46;;;;;;;0.80;0.80;;;16.00;75.80;;;;;;4996036;28;20895;-65
2023/04/14 11:49:12;;;;;;;0.90;0.90;;;16.10;75.30;;;;;;4996093;28;20946;-67
2023/04/14 11:51:37;;;;;;;0.60;0.60;;;16.20;74.70;;;;;;4995705;28;20230;-66
2023/04/14 11:54:03;;;;;;;0.60;0.60;;;16.40;73.70;;;;;;4993722;28;20202;-61
2023/04/14 11:56:31;;;;;;;1.27;0.80;;;16.60;73.20;;;;;;4995890;28;20209;-75
2023/04/14 11:59:04;;;;;;;1.60;0.80;;;16.60;72.10;;;;;;4978364;28;20780;-67
2023/04/14 12:01:30;;;;;;;3.13;1.23;;;16.60;66.10;;;;;;4995447;28;20490;-65
2023/04/14 12:03:56;;;;;;;0.83;0.60;;;16.50;67.70;;;;;;4958946;28;20412;-69
2023/04/14 12:06:23;;;;;;;1.50;1.03;;;16.30;68.00;;;;;;4959018;28;20781;-69
2023/04/14 12:09:02;;;;;;;0.80;0.80;;;16.10;70.80;;;;;;4976168;28;20190;-71
2023/04/14 12:11:28;;;;;;;1.63;1.00;;;16.00;72.90;;;;;;4976256;28;20427;-74
2023/04/14 12:13:54;;;;;;;0.73;0.73;;;15.80;73.90;;;;;;4975783;28;20739;-69
2023/04/14 12:16:20;;;;;;;5.90;1.07;;;15.50;72.80;;;;;;4975803;28;20181;-71
2023/04/14 12:18:45;;;;;;;0.83;0.53;;;15.30;74.00;;;;;;4994493;28;20473;-72
2023/04/14 12:21:16;;;;;;;0.50;0.50;;;15.20;74.40;;;;;;4995112;28;20408;-69
2023/04/14 12:23:47;;;;;;;0.80;0.70;;;15.10;72.20;;;;;;4994932;28;20424;-71
2023/04/14 12:26:13;;;;;;;1.30;1.20;;;14.80;71.70;;;;;;4995276;28;20377;-70
2023/04/14 12:28:40;;;;;;;0.90;0.80;;;14.70;72.30;;;;;;4976989;28;20897;-73
2023/04/14 12:31:07;;;;;;;0.53;0.53;;;14.80;71.80;;;;;;4975724;28;20878;-73
2023/04/14 12:33:33;;;;;;;0.60;0.50;;;14.80;71.80;;;;;;4957800;28;20514;-69
2023/04/14 12:36:03;;;;;;;0.70;0.70;;;15.00;72.40;;;;;;4975723;28;20516;-71
2023/04/14 12:38:29;;;;;;;0.93;0.63;;;15.00;71.60;;;;;;4975468;28;20435;-73
2023/04/14 12:40:55;;;;;;;0.80;0.50;;;15.00;71.80;;;;;;4975515;28;20499;-71
2023/04/14 12:43:47;;;;;;;1.03;0.90;;;15.10;74.50;;;;;;4974835;28;20502;-73
2023/04/14 12:46:22;;;;;;;1.50;1.20;;;15.20;75.10;;;;;;4952576;29;20622;-74
2023/04/14 12:48:48;;;;;;;0.70;0.60;;;15.20;73.20;;;;;;4955877;28;20638;-71
2023/04/14 12:51:19;;;;;;;10.57;0.57;;;15.30;70.90;;;;;;4938853;29;20467;-70
2023/04/14 12:53:47;;;;;;;0.50;0.40;;;15.30;73.60;;;;;;4955902;28;20433;-71
2023/04/14 12:56:15;;;;;;;1.20;0.67;;;15.40;72.90;;;;;;4939391;29;20391;-73
2023/04/14 12:58:45;;;;;;;1.90;0.93;;;15.40;72.80;;;;;;4968488;28;20419;-74
2023/04/14 13:01:12;;;;;;;0.70;0.70;;;15.30;69.10;;;;;;4994855;28;20485;-68
2023/04/14 13:03:39;;;;;;;1.50;0.80;;;15.20;67.60;;;;;;4994393;28;20410;-64
2023/04/14 13:06:04;;;;;;;0.60;0.60;;;15.20;70.70;;;;;;4994204;28;20490;-64
2023/04/14 13:08:30;;;;;;;1.17;0.57;;;15.20;71.30;;;;;;4994673;28;20422;-65
2023/04/14 13:10:56;;;;;;;0.53;0.50;;;15.30;71.40;;;;;;4994268;28;20207;-64
2023/04/14 13:13:22;;;;;;;0.40;0.40;;;15.30;72.70;;;;;;4993421;28;20179;-64
2023/04/14 13:15:48;;;;;;;1.17;0.70;;;15.30;72.70;;;;;;4994278;28;20195;-64
2023/04/14 13:18:15;;;;;;;3.23;1.10;;;15.50;73.30;;;;;;4994434;28;20414;-63
2023/04/14 13:20:40;;;;;;;1.80;0.70;;;15.60;71.70;;;;;;4994544;28;20203;-63
2023/04/14 13:23:06;;;;;;;0.60;0.60;;;15.80;71.60;;;;;;4993958;28;20869;-63
2023/04/14 13:25:32;;;;;;;0.60;0.60;;;15.80;69.80;;;;;;4994284;28;20613;-64
2023/04/14 13:27:57;;;;;;;0.70;0.70;;;15.90;68.70;;;;;;4980029;28;20186;-63
2023/04/14 13:30:23;;;;;;;2.83;0.80;;;15.70;66.70;;;;;;4974241;28;20213;-64
2023/04/14 13:32:48;;;;;;;0.50;0.50;;;15.60;65.30;;;;;;4972643;28;20512;-63
2023/04/14 13:35:14;;;;;;;0.50;0.50;;;15.40;62.30;;;;;;4972300;28;20206;-64
2023/04/14 13:37:40;;;;;;;0.67;0.67;;;15.30;63.60;;;;;;4973069;28;20172;-63
2023/04/14 13:40:06;;;;;;;0.90;0.60;;;15.20;64.40;;;;;;4972942;28;20180;-63
2023/04/14 13:42:32;;;;;;;1.27;0.80;;;15.10;65.00;;;;;;4985256;28;20199;-63
2023/04/14 13:44:57;;;;;;;0.40;0.40;;;15.00;62.80;;;;;;4991830;28;20426;-64
2023/04/14 13:47:24;;;;;;;2.00;0.93;;;15.00;65.80;;;;;;4993646;28;20176;-64
2023/04/14 13:49:50;;;;;;;1.10;1.00;;;15.00;65.50;;;;;;4993951;28;20207;-63
2023/04/14 13:52:16;;;;;;;0.90;0.70;;;15.00;64.60;;;;;;4993959;28;20423;-63
2023/04/14 13:54:41;;;;;;;1.00;0.53;;;15.00;64.30;;;;;;4993552;28;20662;-63
2023/04/14 13:57:07;;;;;;;1.27;0.47;;;15.10;66.40;;;;;;4982184;28;20172;-63
2023/04/14 13:59:32;;;;;;;0.43;0.43;;;15.20;64.10;;;;;;4974701;28;20187;-63
2023/04/14 14:01:58;;;;;;;0.60;0.60;;;15.20;64.10;;;;;;4976654;28;20181;-64
2023/04/14 14:04:23;;;;;;;0.50;0.40;;;15.00;61.60;;;;;;4978031;28;20203;-64
2023/04/14 14:06:49;;;;;;;1.17;0.60;;;14.90;64.60;;;;;;4978476;28;20196;-64
2023/04/14 14:09:15;;;;;;;0.60;0.60;;;15.00;65.00;;;;;;4978502;28;20180;-64
2023/04/14 14:11:43;;;;;;;0.73;0.73;;;15.00;65.30;;;;;;4960842;28;20211;-64
2023/04/14 14:14:09;;;;;;;0.67;0.50;;;14.90;67.00;;;;;;4977830;28;20701;-63
2023/04/14 14:16:35;;;;;;;0.50;0.50;;;14.90;69.10;;;;;;4978374;28;20408;-64
2023/04/14 14:19:00;;;;;;;1.27;0.90;;;14.90;66.90;;;;;;4978223;28;20494;-64
2023/04/14 14:21:26;;;;;;;3.70;1.53;;;14.90;65.70;;;;;;4978198;28;20415;-64
2023/04/14 14:23:52;;;;;;;0.97;0.97;;;14.80;63.40;;;;;;4977606;28;20182;-64
2023/04/14 14:26:17;;;;;;;0.60;0.60;;;14.70;61.70;;;;;;4977699;28;20176;-63
2023/04/14 14:28:44;;;;;;;1.80;0.73;;;14.60;62.60;;;;;;4978213;28;20180;-63
2023/04/14 14:31:10;;;;;;;0.60;0.47;;;14.60;62.90;;;;;;4977987;28;20242;-63
2023/04/14 14:33:36;;;;;;;1.67;0.80;;;14.70;63.30;;;;;;4977746;28;20450;-64
2023/04/14 14:36:03;;;;;;;0.60;0.53;;;14.70;65.60;;;;;;4977737;28;20200;-63
2023/04/14 14:38:28;;;;;;;0.67;0.67;;;14.70;65.30;;;;;;4977977;28;20450;-64
2023/04/14 14:40:54;;;;;;;1.23;0.70;;;14.70;64.50;;;;;;4977588;28;20436;-63
2023/04/14 14:43:19;;;;;;;0.80;0.70;;;14.80;64.40;;;;;;4983108;28;20478;-63
2023/04/14 14:45:45;;;;;;;0.70;0.70;;;14.80;63.50;;;;;;4996797;28;20202;-64
2023/04/14 14:48:11;;;;;;;0.60;0.60;;;14.80;64.90;;;;;;4997034;28;20179;-64
2023/04/14 14:50:37;;;;;;;0.73;0.70;;;14.80;63.70;;;;;;4996965;28;20203;-64
2023/04/14 14:53:02;;;;;;;4.10;0.80;;;14.80;62.90;;;;;;4996639;28;20437;-64
2023/04/14 14:55:28;;;;;;;0.80;0.80;;;14.80;66.20;;;;;;4996898;28;20187;-64
2023/04/14 14:57:54;;;;;;;0.47;0.47;;;14.90;66.60;;;;;;4996180;28;20266;-64
2023/04/14 15:00:19;;;;;;;1.23;0.77;;;15.00;65.40;;;;;;4996833;28;20179;-64
2023/04/14 15:02:45;;;;;;;0.57;0.57;;;15.00;63.10;;;;;;4996694;28;20172;-63
2023/04/14 15:05:10;;;;;;;0.50;0.50;;;15.00;62.80;;;;;;4996265;28;20294;-65
2023/04/14 15:07:36;;;;;;;0.60;0.60;;;15.00;63.10;;;;;;4996817;28;20638;-64
2023/04/14 15:10:04;;;;;;;0.50;0.50;;;15.00;60.00;;;;;;4996787;28;20199;-63
2023/04/14 15:12:30;;;;;;;0.60;0.60;;;15.00;59.00;;;;;;4995769;28;20172;-63
2023/04/14 15:14:56;;;;;;;0.63;0.63;;;14.90;59.10;;;;;;4996205;28;20845;-63
2023/04/14 15:17:22;;;;;;;4.90;0.83;;;14.90;58.90;;;;;;4986344;28;20458;-63
2023/04/14 15:19:48;;;;;;;0.50;0.40;;;14.90;60.90;;;;;;4976918;28;20187;-64
2023/04/14 15:22:14;;;;;;;0.80;0.60;;;14.70;59.80;;;;;;4977296;28;20180;-64
2023/04/14 15:24:40;;;;;;;1.10;1.00;;;14.70;60.70;;;;;;4976717;28;20761;-64
2023/04/14 15:27:05;;;;;;;0.50;0.50;;;14.70;62.10;;;;;;4977249;28;20410;-64
2023/04/14 15:29:31;;;;;;;0.57;0.57;;;14.60;60.80;;;;;;4986506;28;20556;-64
2023/04/14 15:31:57;;;;;;;0.50;0.50;;;14.60;62.70;;;;;;4996474;28;20214;-64
2023/04/14 15:34:22;;;;;;;3.50;3.13;;;14.60;61.70;;;;;;4978286;28;20661;-63
2023/04/14 15:36:48;;;;;;;1.17;0.80;;;14.50;63.20;;;;;;4995907;28;20206;-64
2023/04/14 15:39:13;;;;;;;0.60;0.60;;;14.60;63.80;;;;;;4996233;28;20168;-64
2023/04/14 15:41:40;;;;;;;0.67;0.67;;;14.60;63.30;;;;;;4996150;28;20167;-65
2023/04/14 15:44:05;;;;;;;1.20;0.87;;;14.60;61.70;;;;;;4995512;28;20554;-65
2023/04/14 15:46:31;;;;;;;1.03;0.93;;;14.60;60.60;;;;;;4993810;28;20425;-63
2023/04/14 15:48:57;;;;;;;0.80;0.80;;;14.60;59.30;;;;;;4976776;28;20176;-64
2023/04/14 15:51:23;;;;;;;0.80;0.50;;;14.60;59.50;;;;;;4977002;28;20212;-65
2023/04/14 15:53:50;;;;;;;0.60;0.60;;;14.60;58.80;;;;;;4976169;28;20398;-63
2023/04/14 15:56:16;;;;;;;1.13;1.13;;;14.60;59.40;;;;;;4976501;28;20168;-64
2023/04/14 15:58:41;;;;;;;1.00;0.67;;;14.60;63.00;;;;;;4976964;28;20412;-64
2023/04/14 16:01:07;;;;;;;1.70;0.60;;;14.50;62.10;;;;;;4976717;28;20176;-64
2023/04/14 16:03:33;;;;;;;0.77;0.53;;;14.50;61.90;;;;;;4976361;28;20176;-62
2023/04/14 16:06:02;;;;;;;1.00;0.70;;;14.40;60.90;;;;;;4975990;28;20689;-67
2023/04/14 16:08:28;;;;;;;2.50;0.80;;;14.30;61.00;;;;;;4975651;28;20531;-66
2023/04/14 16:10:54;;;;;;;0.70;0.63;;;14.30;60.20;;;;;;4976123;28;20450;-66
2023/04/14 16:13:19;;;;;;;0.97;0.87;;;14.20;59.40;;;;;;4975636;28;20171;-67
2023/04/14 16:15:45;;;;;;;0.50;0.50;;;14.20;60.40;;;;;;4975741;28;20191;-66
2023/04/14 16:18:10;;;;;;;0.40;0.40;;;14.20;61.10;;;;;;4958875;28;20181;-66
2023/04/14 16:20:36;;;;;;;0.47;0.47;;;14.20;60.90;;;;;;4975962;28;20190;-66
2023/04/14 16:23:02;;;;;;;0.63;0.63;;;14.10;61.10;;;;;;4985796;28;20241;-66
2023/04/14 16:25:27;;;;;;;0.67;0.50;;;14.10;60.30;;;;;;4994545;28;20210;-66
2023/04/14 16:27:53;;;;;;;1.23;0.70;;;14.10;58.70;;;;;;4995156;28;20174;-66
2023/04/14 16:30:19;;;;;;;1.27;0.60;;;14.10;58.90;;;;;;4995168;28;20203;-69
2023/04/14 16:32:45;;;;;;;0.60;0.60;;;14.10;59.10;;;;;;4984289;28;20183;-65
2023/04/14 16:35:10;;;;;;;0.57;0.57;;;14.10;59.40;;;;;;4975165;28;20529;-66
2023/04/14 16:37:36;;;;;;;0.43;0.43;;;14.10;59.90;;;;;;4976135;28;20292;-66
2023/04/14 16:40:02;;;;;;;0.97;0.63;;;14.00;61.70;;;;;;4975412;28;20212;-65
2023/04/14 16:42:28;;;;;;;0.63;0.63;;;13.90;61.10;;;;;;4975584;28;20419;-62
2023/04/14 16:44:54;;;;;;;0.70;0.50;;;13.90;59.90;;;;;;4975103;28;20444;-63
2023/04/14 16:47:21;;;;;;;0.50;0.50;;;13.90;58.40;;;;;;4984408;28;20202;-63
2023/04/14 16:49:49;;;;;;;0.30;0.30;;;13.80;58.50;;;;;;4994870;28;20484;-63
2023/04/14 16:52:15;;;;;;;0.70;0.70;;;13.80;59.30;;;;;;4994738;28;20405;-65